Time;durP1;ratioP1;P1;durP2;ratioP2;P2;SDS_P1;SDS_P2;PMS_P1;PMS_P2;Temp;Humidity;BMP_temperature;BMP_pressure;BME280_temperature;BME280_humidity;BME280_pressure;Samples;Min_cycle;Max_cycle;Signal;HPM_P1;HPM_P2
2023/07/20 00:01:53;;;;;;;8.03;3.20;;;;;;;;;;5134520;27;20193;-77
2023/07/20 00:04:20;;;;;;;9.37;3.23;;;;;;;;;;5134825;27;20233;-77
2023/07/20 00:06:48;;;;;;;7.00;3.30;;;;;;;;;;5134514;27;20200;-78
2023/07/20 00:09:15;;;;;;;7.70;3.07;;;;;;;;;;5134417;27;20691;-77
2023/07/20 00:11:49;;;;;;;6.07;3.10;;;;;;;;;;5134398;27;20240;-77
2023/07/20 00:14:16;;;;;;;11.33;3.10;;;;;;;;;;5133873;27;20250;-77
2023/07/20 00:16:46;;;;;;;6.17;3.20;;;;;;;;;;5134107;27;20221;-76
2023/07/20 00:19:13;;;;;;;8.50;3.23;;;;;;;;;;5124044;27;20698;-77
2023/07/20 00:21:42;;;;;;;7.27;3.23;;;;;;;;;;5132381;27;20726;-77
2023/07/20 00:24:09;;;;;;;7.30;3.23;;;;;;;;;;5133945;27;20198;-78
2023/07/20 00:26:36;;;;;;;9.47;3.20;;;;;;;;;;5134387;27;20288;-77
2023/07/20 00:29:04;;;;;;;7.57;3.23;;;;;;;;;;5145182;27;20220;-77
2023/07/20 00:31:31;;;;;;;5.00;2.60;;;;;;;;;;5154314;27;20196;-77
2023/07/20 00:34:00;;;;;;;8.60;3.23;;;;;;;;;;5137870;27;20293;-77
2023/07/20 00:36:27;;;;;;;9.33;4.33;;;;;;;;;;5150919;27;20190;-77
2023/07/20 00:38:54;;;;;;;12.57;3.67;;;;;;;;;;5141006;27;20188;-77
2023/07/20 00:41:21;;;;;;;8.17;3.33;;;;;;;;;;5154698;27;20291;-77
2023/07/20 00:43:49;;;;;;;6.27;3.17;;;;;;;;;;5154280;27;20196;-75
2023/07/20 00:46:16;;;;;;;8.60;3.63;;;;;;;;;;5154030;27;20291;-76
2023/07/20 00:48:44;;;;;;;5.40;2.87;;;;;;;;;;5154201;27;20188;-77
2023/07/20 00:51:12;;;;;;;9.47;3.57;;;;;;;;;;5154538;27;20236;-76
2023/07/20 00:53:40;;;;;;;7.03;3.57;;;;;;;;;;5153865;27;21038;-76
2023/07/20 00:56:08;;;;;;;7.97;3.03;;;;;;;;;;5154791;27;20283;-76
2023/07/20 00:58:36;;;;;;;9.40;2.90;;;;;;;;;;5138788;27;20235;-77
2023/07/20 01:01:03;;;;;;;11.23;3.80;;;;;;;;;;5133545;27;20312;-77
2023/07/20 01:03:30;;;;;;;8.80;3.80;;;;;;;;;;5133719;27;20220;-78
2023/07/20 01:06:13;;;;;;;7.07;3.63;;;;;;;;;;5133463;27;20248;-78
2023/07/20 01:08:45;;;;;;;8.50;3.77;;;;;;;;;;5133046;27;20288;-76
2023/07/20 01:11:16;;;;;;;8.20;4.03;;;;;;;;;;5133319;27;20627;-77
2023/07/20 01:13:44;;;;;;;9.37;4.20;;;;;;;;;;5133113;27;20288;-76
2023/07/20 01:16:11;;;;;;;8.43;4.03;;;;;;;;;;5133048;27;20205;-77
2023/07/20 01:18:39;;;;;;;6.03;4.00;;;;;;;;;;5133098;27;20232;-77
2023/07/20 01:21:08;;;;;;;8.03;4.33;;;;;;;;;;5133128;27;20231;-77
2023/07/20 01:23:54;;;;;;;9.63;4.13;;;;;;;;;;5132972;27;20228;-76
2023/07/20 01:26:39;;;;;;;6.77;4.40;;;;;;;;;;5132427;27;20204;-77
2023/07/20 01:29:13;;;;;;;6.17;4.23;;;;;;;;;;5133020;27;20350;-76
2023/07/20 01:31:43;;;;;;;10.40;4.43;;;;;;;;;;5132651;27;20193;-77
2023/07/20 01:34:11;;;;;;;8.60;4.20;;;;;;;;;;5132817;27;20751;-77
2023/07/20 01:36:39;;;;;;;6.97;4.23;;;;;;;;;;5132857;27;20635;-76
2023/07/20 01:39:07;;;;;;;9.33;5.10;;;;;;;;;;5132733;27;20283;-75
2023/07/20 01:41:35;;;;;;;9.37;4.53;;;;;;;;;;5134751;27;20201;-78
2023/07/20 01:44:02;;;;;;;9.53;4.70;;;;;;;;;;5129643;27;20661;-75
2023/07/20 01:46:29;;;;;;;8.67;4.60;;;;;;;;;;5135883;27;20220;-76
2023/07/20 01:48:59;;;;;;;8.33;4.90;;;;;;;;;;5127315;27;20288;-78
2023/07/20 01:51:26;;;;;;;10.10;5.10;;;;;;;;;;5128228;27;20229;-77
2023/07/20 01:53:53;;;;;;;7.73;4.93;;;;;;;;;;5132737;27;20193;-78
2023/07/20 01:56:20;;;;;;;8.70;4.70;;;;;;;;;;5132490;27;20661;-77
2023/07/20 01:58:47;;;;;;;5.57;4.23;;;;;;;;;;5132040;27;20291;-77
2023/07/20 02:01:14;;;;;;;10.10;4.90;;;;;;;;;;5132165;27;20319;-78
2023/07/20 02:03:42;;;;;;;7.43;4.23;;;;;;;;;;5132509;27;20193;-79
2023/07/20 02:06:10;;;;;;;7.23;4.20;;;;;;;;;;5131962;27;20272;-76
2023/07/20 02:08:37;;;;;;;7.50;4.33;;;;;;;;;;5131974;27;20284;-77
2023/07/20 02:11:04;;;;;;;11.43;4.07;;;;;;;;;;5132190;27;20227;-78
2023/07/20 02:13:32;;;;;;;7.83;4.20;;;;;;;;;;5132333;27;20200;-78
2023/07/20 02:15:59;;;;;;;11.63;4.47;;;;;;;;;;5131676;27;20764;-78
2023/07/20 02:18:26;;;;;;;8.13;4.37;;;;;;;;;;5132411;27;20213;-78
2023/07/20 02:20:54;;;;;;;7.03;4.10;;;;;;;;;;5132104;28;20259;-78
2023/07/20 02:23:23;;;;;;;7.90;4.30;;;;;;;;;;5131680;28;20654;-78
2023/07/20 02:25:50;;;;;;;8.43;4.10;;;;;;;;;;5131965;27;20279;-76
2023/07/20 02:28:17;;;;;;;7.90;4.03;;;;;;;;;;5131982;28;20292;-78
2023/07/20 02:30:44;;;;;;;9.10;4.37;;;;;;;;;;5132300;27;20223;-78
2023/07/20 02:33:12;;;;;;;8.67;4.70;;;;;;;;;;5132309;28;20229;-77
2023/07/20 02:35:39;;;;;;;10.67;4.77;;;;;;;;;;5131685;28;20287;-77
2023/07/20 02:38:06;;;;;;;8.43;5.20;;;;;;;;;;5131792;28;20189;-77
2023/07/20 02:40:35;;;;;;;12.30;5.30;;;;;;;;;;5132053;28;20267;-77
2023/07/20 02:43:03;;;;;;;11.33;5.23;;;;;;;;;;5132015;28;20281;-78
2023/07/20 02:45:31;;;;;;;7.53;5.30;;;;;;;;;;5131481;27;20293;-78
2023/07/20 02:47:58;;;;;;;10.97;4.97;;;;;;;;;;5133099;27;20200;-78
2023/07/20 02:50:25;;;;;;;11.13;4.97;;;;;;;;;;5151291;27;20299;-77
2023/07/20 02:52:52;;;;;;;7.77;4.57;;;;;;;;;;5148852;27;20271;-77
2023/07/20 02:55:20;;;;;;;9.47;4.90;;;;;;;;;;5152680;27;20279;-78
2023/07/20 02:57:47;;;;;;;8.77;4.40;;;;;;;;;;5152324;27;20209;-77
2023/07/20 03:00:19;;;;;;;9.60;4.97;;;;;;;;;;5152353;27;20300;-77
2023/07/20 03:02:47;;;;;;;8.87;4.80;;;;;;;;;;5152119;27;20197;-77
2023/07/20 03:05:15;;;;;;;8.97;5.27;;;;;;;;;;5152339;27;20193;-77
2023/07/20 03:07:44;;;;;;;9.80;5.30;;;;;;;;;;5152085;27;20665;-77
2023/07/20 03:10:12;;;;;;;9.00;4.67;;;;;;;;;;5152308;27;20288;-77
2023/07/20 03:12:39;;;;;;;7.10;4.33;;;;;;;;;;5152334;27;20188;-78
2023/07/20 03:15:07;;;;;;;6.93;4.63;;;;;;;;;;5152472;27;20220;-78
2023/07/20 03:17:36;;;;;;;7.27;4.90;;;;;;;;;;5112281;28;20233;-76
2023/07/20 03:20:03;;;;;;;7.93;4.27;;;;;;;;;;5114866;28;20313;-77
2023/07/20 03:22:30;;;;;;;11.53;4.90;;;;;;;;;;5114961;28;20197;-78
2023/07/20 03:24:58;;;;;;;11.40;5.00;;;;;;;;;;5123873;27;20289;-77
2023/07/20 03:27:25;;;;;;;7.93;4.23;;;;;;;;;;5125772;27;20233;-77
2023/07/20 03:29:52;;;;;;;6.20;4.27;;;;;;;;;;5135696;27;20224;-77
2023/07/20 03:32:19;;;;;;;8.40;4.60;;;;;;;;;;5135067;27;20193;-76
2023/07/20 03:34:48;;;;;;;9.37;4.53;;;;;;;;;;5135386;27;20228;-77
2023/07/20 03:37:15;;;;;;;8.80;4.50;;;;;;;;;;5134521;27;20279;-77
2023/07/20 03:39:42;;;;;;;6.60;4.10;;;;;;;;;;5135304;27;20291;-78
2023/07/20 03:42:09;;;;;;;7.80;4.30;;;;;;;;;;5134813;27;20660;-77
2023/07/20 03:44:36;;;;;;;7.57;4.80;;;;;;;;;;5135099;27;20296;-76
2023/07/20 03:47:04;;;;;;;8.47;4.40;;;;;;;;;;5135207;27;20195;-78
2023/07/20 03:49:31;;;;;;;6.23;3.83;;;;;;;;;;5134695;27;20293;-76
2023/07/20 03:52:00;;;;;;;6.43;4.03;;;;;;;;;;5134352;27;20332;-76
2023/07/20 03:54:27;;;;;;;6.27;3.80;;;;;;;;;;5134924;27;20207;-78
2023/07/20 03:56:54;;;;;;;5.20;3.40;;;;;;;;;;5134963;27;20216;-77
2023/07/20 03:59:21;;;;;;;4.97;3.20;;;;;;;;;;5134681;27;20234;-77
2023/07/20 04:01:48;;;;;;;6.37;3.40;;;;;;;;;;5134464;27;20267;-77
2023/07/20 04:04:17;;;;;;;4.73;3.47;;;;;;;;;;5134675;27;20200;-78
2023/07/20 04:06:45;;;;;;;4.53;3.20;;;;;;;;;;5133980;27;20200;-78
2023/07/20 04:09:13;;;;;;;5.13;3.30;;;;;;;;;;5134625;27;20189;-78
2023/07/20 04:11:41;;;;;;;6.53;3.73;;;;;;;;;;5134385;27;20225;-77
2023/07/20 04:14:08;;;;;;;6.90;3.40;;;;;;;;;;5134594;27;20562;-77
2023/07/20 04:16:35;;;;;;;5.80;3.70;;;;;;;;;;5134096;27;20757;-77
2023/07/20 04:19:02;;;;;;;6.67;4.20;;;;;;;;;;5134582;27;20620;-77
2023/07/20 04:21:30;;;;;;;7.87;6.33;;;;;;;;;;5133732;27;20257;-77
2023/07/20 04:23:57;;;;;;;7.43;5.67;;;;;;;;;;5133855;27;20289;-77
2023/07/20 04:26:26;;;;;;;7.30;4.27;;;;;;;;;;5133945;27;20280;-76
2023/07/20 04:28:53;;;;;;;6.97;4.23;;;;;;;;;;5133682;27;20221;-77
2023/07/20 04:31:20;;;;;;;7.50;4.53;;;;;;;;;;5133597;27;20287;-76
2023/07/20 04:33:47;;;;;;;10.70;4.47;;;;;;;;;;5133845;27;20604;-77
2023/07/20 04:36:19;;;;;;;11.03;5.80;;;;;;;;;;5133939;27;20224;-77
2023/07/20 04:38:46;;;;;;;17.30;7.83;;;;;;;;;;5133889;27;20197;-77
2023/07/20 04:41:13;;;;;;;16.23;7.87;;;;;;;;;;5133868;27;20739;-77
2023/07/20 04:43:43;;;;;;;24.63;9.50;;;;;;;;;;5133983;27;20296;-77
2023/07/20 04:46:11;;;;;;;12.60;7.47;;;;;;;;;;5134044;27;20193;-76
2023/07/20 04:48:38;;;;;;;9.30;5.37;;;;;;;;;;5133631;27;20236;-76
2023/07/20 04:51:05;;;;;;;12.63;5.77;;;;;;;;;;5133949;27;20256;-76
2023/07/20 04:53:32;;;;;;;17.67;7.57;;;;;;;;;;5133455;27;20246;-76
2023/07/20 04:56:00;;;;;;;17.83;7.83;;;;;;;;;;5133450;27;20816;-78
2023/07/20 04:58:27;;;;;;;17.63;8.03;;;;;;;;;;5130525;27;20631;-76
2023/07/20 05:00:55;;;;;;;18.63;8.77;;;;;;;;;;5115450;27;20735;-76
2023/07/20 05:03:23;;;;;;;15.37;9.10;;;;;;;;;;5132102;27;20662;-76
2023/07/20 05:05:50;;;;;;;16.20;8.77;;;;;;;;;;5133093;27;20336;-77
2023/07/20 05:08:17;;;;;;;14.50;8.57;;;;;;;;;;5133717;27;20232;-76
2023/07/20 05:10:44;;;;;;;13.07;8.90;;;;;;;;;;5133035;27;20284;-76
2023/07/20 05:13:11;;;;;;;13.00;8.93;;;;;;;;;;5133044;27;20676;-75
2023/07/20 05:15:39;;;;;;;13.27;9.03;;;;;;;;;;5132781;27;20287;-76
2023/07/20 05:18:07;;;;;;;13.93;8.53;;;;;;;;;;5132251;27;20624;-76
2023/07/20 05:20:37;;;;;;;10.77;8.00;;;;;;;;;;5132405;27;20193;-76
2023/07/20 05:23:04;;;;;;;11.17;5.70;;;;;;;;;;5132550;27;20230;-76
2023/07/20 05:25:31;;;;;;;8.20;5.23;;;;;;;;;;5132330;27;20744;-78
2023/07/20 05:27:58;;;;;;;9.63;5.70;;;;;;;;;;5133041;27;20507;-78
2023/07/20 05:30:26;;;;;;;10.27;5.27;;;;;;;;;;5132404;27;20228;-78
2023/07/20 05:32:54;;;;;;;9.90;4.93;;;;;;;;;;5131698;27;20228;-77
2023/07/20 05:35:22;;;;;;;8.87;5.00;;;;;;;;;;5132577;27;20200;-76
2023/07/20 05:37:50;;;;;;;19.13;6.37;;;;;;;;;;5132627;27;20199;-78
2023/07/20 05:40:18;;;;;;;15.37;6.90;;;;;;;;;;5131940;27;20287;-78
2023/07/20 05:42:47;;;;;;;16.37;7.80;;;;;;;;;;5130298;27;20252;-79
2023/07/20 05:45:15;;;;;;;19.63;7.80;;;;;;;;;;5128142;27;20761;-77
2023/07/20 05:47:43;;;;;;;16.77;7.43;;;;;;;;;;5132722;27;20189;-78
2023/07/20 05:50:10;;;;;;;24.80;8.67;;;;;;;;;;5132168;27;20228;-78
2023/07/20 05:52:40;;;;;;;20.20;9.00;;;;;;;;;;5131948;27;20275;-79
2023/07/20 05:55:07;;;;;;;15.30;9.43;;;;;;;;;;5132863;27;20662;-78
2023/07/20 05:57:35;;;;;;;25.17;8.87;;;;;;;;;;5132087;27;20292;-78
2023/07/20 06:00:03;;;;;;;17.03;9.03;;;;;;;;;;5131810;27;20193;-77
2023/07/20 06:02:32;;;;;;;18.87;8.77;;;;;;;;;;5132057;27;20225;-78
2023/07/20 06:04:59;;;;;;;9.43;7.67;;;;;;;;;;5132917;27;20193;-77
2023/07/20 06:07:27;;;;;;;9.70;7.37;;;;;;;;;;5132254;27;20197;-79
2023/07/20 06:09:55;;;;;;;9.67;7.33;;;;;;;;;;5132537;27;20665;-79
2023/07/20 06:12:22;;;;;;;9.97;7.40;;;;;;;;;;5132171;27;20197;-78
2023/07/20 06:14:50;;;;;;;8.80;7.50;;;;;;;;;;5131949;27;20276;-78
2023/07/20 06:17:17;;;;;;;15.37;8.00;;;;;;;;;;5132298;27;20235;-79
2023/07/20 06:19:44;;;;;;;9.47;6.50;;;;;;;;;;5132440;27;20284;-78
2023/07/20 06:22:11;;;;;;;9.07;7.20;;;;;;;;;;5132174;28;20231;-78
2023/07/20 06:24:38;;;;;;;10.07;6.57;;;;;;;;;;5132585;27;20276;-78
2023/07/20 06:27:07;;;;;;;8.43;6.57;;;;;;;;;;5132487;28;20242;-79
2023/07/20 06:29:35;;;;;;;7.07;6.10;;;;;;;;;;5132204;27;20197;-78
2023/07/20 06:32:02;;;;;;;7.20;6.50;;;;;;;;;;5132014;28;20272;-78
2023/07/20 06:34:29;;;;;;;6.95;6.22;;;;;;;;;;5132579;28;20224;-78
2023/07/20 06:36:57;;;;;;;6.05;5.45;;;;;;;;;;5131991;28;20224;-80
2023/07/20 06:39:24;;;;;;;8.30;5.95;;;;;;;;;;5131985;28;20190;-79
2023/07/20 06:41:51;;;;;;;5.35;4.78;;;;;;;;;;5131954;28;20319;-79
2023/07/20 06:44:20;;;;;;;5.93;4.68;;;;;;;;;;5131436;27;20192;-78
2023/07/20 06:46:47;;;;;;;5.85;3.72;;;;;;;;;;5132033;28;20204;-80
2023/07/20 06:49:25;;;;;;;6.57;4.20;;;;;;;;;;5132032;28;20231;-79
2023/07/20 06:51:52;;;;;;;4.63;3.55;;;;;;;;;;5132221;27;20233;-79
2023/07/20 06:54:19;;;;;;;5.63;3.40;;;;;;;;;;5135952;27;20235;-79
2023/07/20 06:56:46;;;;;;;4.53;3.20;;;;;;;;;;5135802;27;20634;-78
2023/07/20 06:59:14;;;;;;;5.25;2.70;;;;;;;;;;5135932;27;20228;-79
2023/07/20 07:01:42;;;;;;;4.22;2.88;;;;;;;;;;5136271;27;20304;-80
2023/07/20 07:04:09;;;;;;;5.75;2.95;;;;;;;;;;5126043;27;20656;-80
2023/07/20 07:06:37;;;;;;;4.43;3.20;;;;;;;;;;5115157;28;20688;-80
2023/07/20 07:09:05;;;;;;;6.47;3.67;;;;;;;;;;5115773;28;20197;-80
2023/07/20 07:11:33;;;;;;;3.75;3.00;;;;;;;;;;5114893;28;20194;-80
2023/07/20 07:14:00;;;;;;;6.78;3.65;;;;;;;;;;5114447;28;20225;-80
2023/07/20 07:16:27;;;;;;;2.95;2.35;;;;;;;;;;5126390;27;20283;-80
2023/07/20 07:18:56;;;;;;;3.85;2.20;;;;;;;;;;5135813;27;20280;-80
2023/07/20 07:21:23;;;;;;;3.08;2.30;;;;;;;;;;5135281;27;20700;-80
2023/07/20 07:23:52;;;;;;;4.75;2.35;;;;;;;;;;5135718;27;20190;-79
2023/07/20 07:26:20;;;;;;;3.88;2.33;;;;;;;;;;5135249;27;20197;-81
2023/07/20 07:28:47;;;;;;;5.25;2.50;;;;;;;;;;5135195;27;20254;-79
2023/07/20 07:31:14;;;;;;;4.13;2.53;;;;;;;;;;5135870;27;20220;-80
2023/07/20 07:33:41;;;;;;;5.05;2.80;;;;;;;;;;5135211;27;20630;-79
2023/07/20 07:36:10;;;;;;;4.55;2.60;;;;;;;;;;5135361;27;20280;-79
2023/07/20 07:38:38;;;;;;;3.35;2.42;;;;;;;;;;5135113;27;20605;-81
2023/07/20 07:41:05;;;;;;;4.18;2.33;;;;;;;;;;5135279;27;20204;-81
2023/07/20 07:43:33;;;;;;;7.25;2.65;;;;;;;;;;5134679;27;20225;-81
2023/07/20 07:46:00;;;;;;;4.78;2.40;;;;;;;;;;5135152;27;20197;-81
2023/07/20 07:48:27;;;;;;;2.88;2.40;;;;;;;;;;5134987;27;20197;-81
2023/07/20 07:50:55;;;;;;;5.57;2.28;;;;;;;;;;5134603;27;20233;-82
2023/07/20 07:53:25;;;;;;;3.75;2.50;;;;;;;;;;5134682;27;20197;-81
2023/07/20 07:55:53;;;;;;;2.40;2.20;;;;;;;;;;5134881;27;20677;-81
2023/07/20 07:58:20;;;;;;;4.85;2.80;;;;;;;;;;5134691;27;20334;-81
2023/07/20 08:00:47;;;;;;;6.00;2.58;;;;;;;;;;5134673;27;20254;-81
2023/07/20 08:03:15;;;;;;;3.67;2.60;;;;;;;;;;5133905;27;20225;-82
2023/07/20 08:05:42;;;;;;;2.83;2.30;;;;;;;;;;5133950;27;20296;-81
2023/07/20 08:08:09;;;;;;;3.97;2.40;;;;;;;;;;5134416;27;20254;-81
2023/07/20 08:10:38;;;;;;;4.57;2.10;;;;;;;;;;5134696;27;20691;-81
2023/07/20 08:13:05;;;;;;;3.80;2.08;;;;;;;;;;5133789;27;20228;-81
2023/07/20 08:15:32;;;;;;;4.65;2.22;;;;;;;;;;5134695;27;20761;-82
2023/07/20 08:17:59;;;;;;;3.47;2.05;;;;;;;;;;5134141;27;20292;-81
2023/07/20 08:20:27;;;;;;;4.78;2.08;;;;;;;;;;5134494;27;20642;-81
2023/07/20 08:22:54;;;;;;;4.20;1.90;;;;;;;;;;5134247;27;20217;-81
2023/07/20 08:25:21;;;;;;;5.70;2.08;;;;;;;;;;5133957;27;20224;-81
2023/07/20 08:27:50;;;;;;;4.90;2.25;;;;;;;;;;5134405;27;20240;-80
2023/07/20 08:30:17;;;;;;;4.28;2.30;;;;;;;;;;5134213;27;20242;-79
2023/07/20 08:32:44;;;;;;;3.53;2.20;;;;;;;;;;5133711;27;20280;-79
2023/07/20 08:35:12;;;;;;;3.20;2.00;;;;;;;;;;5133947;27;20665;-80
2023/07/20 08:37:39;;;;;;;4.10;2.05;;;;;;;;;;5134205;27;20279;-80
2023/07/20 08:40:09;;;;;;;3.38;1.77;;;;;;;;;;5134090;27;20601;-81
2023/07/20 08:42:36;;;;;;;2.40;1.83;;;;;;;;;;5134196;27;20306;-80
2023/07/20 08:45:07;;;;;;;4.05;2.00;;;;;;;;;;5135720;27;20280;-80
2023/07/20 08:47:35;;;;;;;4.57;1.90;;;;;;;;;;5133912;27;20197;-80
2023/07/20 08:50:06;;;;;;;2.92;1.90;;;;;;;;;;5132676;27;20688;-80
2023/07/20 08:52:35;;;;;;;5.10;2.20;;;;;;;;;;5132257;27;20216;-81
2023/07/20 08:55:03;;;;;;;3.33;2.00;;;;;;;;;;5133199;27;20280;-80
2023/07/20 08:57:32;;;;;;;4.35;1.90;;;;;;;;;;5132970;27;20216;-81
2023/07/20 08:59:59;;;;;;;2.65;1.80;;;;;;;;;;5133330;27;20269;-81
2023/07/20 09:02:28;;;;;;;3.72;1.98;;;;;;;;;;5133149;27;20248;-81
2023/07/20 09:04:55;;;;;;;3.78;1.80;;;;;;;;;;5132938;27;20197;-80
2023/07/20 09:07:24;;;;;;;3.20;1.80;;;;;;;;;;5133261;27;20631;-80
2023/07/20 09:09:51;;;;;;;2.97;1.95;;;;;;;;;;5133294;27;20197;-80
2023/07/20 09:12:18;;;;;;;5.68;1.95;;;;;;;;;;5133369;27;20280;-80
2023/07/20 09:14:45;;;;;;;3.97;2.00;;;;;;;;;;5132915;27;20213;-81
2023/07/20 09:17:15;;;;;;;5.03;2.10;;;;;;;;;;5133381;27;20287;-80
2023/07/20 09:19:48;;;;;;;3.97;1.90;;;;;;;;;;5133058;27;20651;-80
2023/07/20 09:22:17;;;;;;;4.05;1.75;;;;;;;;;;5132704;27;20751;-81
2023/07/20 09:24:44;;;;;;;4.13;2.00;;;;;;;;;;5132359;27;20238;-80
2023/07/20 09:27:12;;;;;;;3.25;2.10;;;;;;;;;;5132946;27;20288;-80
2023/07/20 09:29:49;;;;;;;2.95;1.52;;;;;;;;;;5132950;27;20273;-81
2023/07/20 09:32:20;;;;;;;4.05;1.95;;;;;;;;;;5132691;27;20201;-81
2023/07/20 09:34:49;;;;;;;2.72;1.70;;;;;;;;;;5132887;27;20193;-80
2023/07/20 09:37:21;;;;;;;4.15;1.40;;;;;;;;;;5132903;27;20221;-81
2023/07/20 09:39:49;;;;;;;3.13;1.70;;;;;;;;;;5132998;27;20353;-80
2023/07/20 09:42:16;;;;;;;2.03;1.48;;;;;;;;;;5132501;27;20252;-81
2023/07/20 09:44:45;;;;;;;2.47;1.60;;;;;;;;;;5132338;27;20714;-80
2023/07/20 09:47:13;;;;;;;2.95;1.77;;;;;;;;;;5126543;27;20194;-80
2023/07/20 09:49:41;;;;;;;2.92;1.67;;;;;;;;;;5112148;28;20687;-80
2023/07/20 09:52:10;;;;;;;3.75;1.70;;;;;;;;;;5114073;27;20744;-80
2023/07/20 09:54:38;;;;;;;2.15;1.60;;;;;;;;;;5111538;28;20281;-80
2023/07/20 09:57:08;;;;;;;5.22;1.90;;;;;;;;;;5112218;28;20189;-81
2023/07/20 09:59:35;;;;;;;2.75;1.45;;;;;;;;;;5112217;28;20296;-80
2023/07/20 10:02:03;;;;;;;3.80;1.65;;;;;;;;;;5111929;28;20221;-81
2023/07/20 10:04:31;;;;;;;6.55;1.80;;;;;;;;;;5112223;28;20244;-81
2023/07/20 10:07:01;;;;;;;3.05;1.52;;;;;;;;;;5111888;28;20624;-81
2023/07/20 10:09:30;;;;;;;12.02;2.45;;;;;;;;;;5111204;28;20624;-81
2023/07/20 10:12:00;;;;;;;2.00;1.48;;;;;;;;;;5111944;28;20201;-81
2023/07/20 10:14:30;;;;;;;5.15;1.48;;;;;;;;;;4774340;27;10000549;-80
2023/07/20 10:17:00;;;;;;;4.43;1.52;;;;;;;;;;5128782;27;20196;-82
2023/07/20 10:19:29;;;;;;;2.72;1.10;;;;;;;;;;5128977;27;20261;-82
2023/07/20 10:21:58;;;;;;;2.05;1.20;;;;;;;;;;5135164;27;20196;-81
2023/07/20 10:24:26;;;;;;;2.20;1.38;;;;;;;;;;5128344;27;20301;-81
2023/07/20 10:26:57;;;;;;;3.55;1.50;;;;;;;;;;5127759;27;20220;-82
2023/07/20 10:29:27;;;;;;;2.72;1.33;;;;;;;;;;5126625;28;20201;-80
2023/07/20 10:31:55;;;;;;;2.30;1.35;;;;;;;;;;5129250;28;20205;-82
2023/07/20 10:34:23;;;;;;;2.03;1.40;;;;;;;;;;5129999;28;20300;-81
2023/07/20 10:36:52;;;;;;;2.83;1.50;;;;;;;;;;5128365;28;20232;-82
2023/07/20 10:39:24;;;;;;;2.90;1.40;;;;;;;;;;5128450;28;20221;-81
2023/07/20 10:41:52;;;;;;;2.40;1.38;;;;;;;;;;5132490;28;20200;-82
2023/07/20 10:44:22;;;;;;;3.25;1.40;;;;;;;;;;5132013;27;20229;-81
2023/07/20 10:46:49;;;;;;;2.35;1.50;;;;;;;;;;5138024;27;20218;-82
2023/07/20 10:49:16;;;;;;;1.83;1.27;;;;;;;;;;5124038;28;20193;-82
2023/07/20 10:51:44;;;;;;;2.17;1.50;;;;;;;;;;5129271;28;20273;-83
2023/07/20 10:54:35;;;;;;;2.90;1.40;;;;;;;;;;5132749;27;20665;-82
2023/07/20 10:57:17;;;;;;;2.55;1.50;;;;;;;;;;5131872;28;20272;-82
2023/07/20 10:59:48;;;;;;;3.15;1.40;;;;;;;;;;5131699;27;20193;-82
2023/07/20 11:02:19;;;;;;;2.88;1.45;;;;;;;;;;5139912;27;20247;-83
2023/07/20 11:04:47;;;;;;;3.90;1.60;;;;;;;;;;5141104;27;20197;-82
2023/07/20 11:07:17;;;;;;;3.15;1.60;;;;;;;;;;5131687;27;20189;-81
2023/07/20 11:09:44;;;;;;;4.43;1.95;;;;;;;;;;5131712;27;20198;-82
2023/07/20 11:12:13;;;;;;;3.47;1.70;;;;;;;;;;5131510;27;20265;-80
2023/07/20 11:14:42;;;;;;;2.83;1.50;;;;;;;;;;5133865;27;20774;-82
2023/07/20 11:17:20;;;;;;;3.83;1.73;;;;;;;;;;5133006;27;20197;-82
2023/07/20 11:19:49;;;;;;;4.78;1.50;;;;;;;;;;5132640;27;20193;-81
2023/07/20 11:22:18;;;;;;;2.55;1.52;;;;;;;;;;5125482;27;20682;-81
2023/07/20 11:24:45;;;;;;;2.53;1.65;;;;;;;;;;5133664;27;20669;-81
2023/07/20 11:27:12;;;;;;;3.65;1.63;;;;;;;;;;5131329;28;20224;-82
2023/07/20 11:29:39;;;;;;;3.00;1.52;;;;;;;;;;5137985;27;20338;-81
2023/07/20 11:32:07;;;;;;;3.35;1.33;;;;;;;;;;5152224;27;20219;-80
2023/07/20 11:34:36;;;;;;;3.38;1.48;;;;;;;;;;5151494;27;20197;-81
2023/07/20 11:37:03;;;;;;;3.00;1.92;;;;;;;;;;5136288;27;20221;-81
2023/07/20 11:39:30;;;;;;;2.65;1.50;;;;;;;;;;5133145;27;20198;-80
2023/07/20 11:41:58;;;;;;;2.03;1.38;;;;;;;;;;5138787;27;20279;-81
2023/07/20 11:44:27;;;;;;;4.03;1.70;;;;;;;;;;5147619;27;20233;-81
2023/07/20 11:47:03;;;;;;;3.22;1.42;;;;;;;;;;5136137;27;20202;-80
2023/07/20 11:49:30;;;;;;;2.72;1.70;;;;;;;;;;5140370;27;20200;-80
2023/07/20 11:52:00;;;;;;;2.13;1.42;;;;;;;;;;5154933;27;20232;-80
2023/07/20 11:54:27;;;;;;;3.75;1.77;;;;;;;;;;5136477;27;20209;-79
2023/07/20 11:56:56;;;;;;;3.50;1.40;;;;;;;;;;5134582;27;20232;-81
2023/07/20 11:59:23;;;;;;;2.80;1.52;;;;;;;;;;5134615;27;20266;-81
2023/07/20 12:01:51;;;;;;;1.80;1.48;;;;;;;;;;5134947;27;20201;-81
2023/07/20 12:04:18;;;;;;;1.85;1.50;;;;;;;;;;5134051;27;20236;-80
2023/07/20 12:06:47;;;;;;;2.50;1.50;;;;;;;;;;5134619;27;20748;-80
2023/07/20 12:09:17;;;;;;;3.42;1.70;;;;;;;;;;5141917;27;20189;-80
2023/07/20 12:11:45;;;;;;;2.85;1.70;;;;;;;;;;5155321;27;20231;-82
2023/07/20 12:14:13;;;;;;;3.83;1.63;;;;;;;;;;5145594;27;20247;-81
2023/07/20 12:16:40;;;;;;;5.20;1.70;;;;;;;;;;5127685;27;20194;-81
2023/07/20 12:19:08;;;;;;;3.45;1.50;;;;;;;;;;5134127;27;20201;-81
2023/07/20 12:21:36;;;;;;;2.75;1.50;;;;;;;;;;5134200;27;20582;-81
2023/07/20 12:24:03;;;;;;;3.55;1.38;;;;;;;;;;5133881;27;20270;-82
2023/07/20 12:26:33;;;;;;;2.85;1.42;;;;;;;;;;5149324;27;20250;-82
2023/07/20 12:29:00;;;;;;;1.85;1.10;;;;;;;;;;5133528;27;20295;-81
2023/07/20 12:31:29;;;;;;;2.10;1.33;;;;;;;;;;5134283;27;20193;-82
2023/07/20 12:33:58;;;;;;;2.00;1.30;;;;;;;;;;5134630;27;20284;-81
2023/07/20 12:36:26;;;;;;;1.30;1.02;;;;;;;;;;5133198;27;20189;-81
2023/07/20 12:38:53;;;;;;;2.85;1.30;;;;;;;;;;5132690;27;20565;-81
2023/07/20 12:41:20;;;;;;;4.45;1.60;;;;;;;;;;5133033;27;20199;-80
2023/07/20 12:43:49;;;;;;;3.08;1.50;;;;;;;;;;5133369;27;20364;-81
2023/07/20 12:46:16;;;;;;;2.38;1.50;;;;;;;;;;5132469;27;20250;-81
2023/07/20 12:48:44;;;;;;;3.03;1.13;;;;;;;;;;5132333;27;20197;-82
2023/07/20 12:51:11;;;;;;;4.25;1.45;;;;;;;;;;5132585;27;20298;-81
2023/07/20 12:53:39;;;;;;;2.85;1.40;;;;;;;;;;5132575;27;20250;-82
2023/07/20 12:56:07;;;;;;;2.67;1.73;;;;;;;;;;5132348;27;20192;-80
2023/07/20 12:58:34;;;;;;;4.15;1.50;;;;;;;;;;5130321;27;20201;-81
2023/07/20 13:01:03;;;;;;;2.85;1.58;;;;;;;;;;5132994;27;20253;-80
2023/07/20 13:03:31;;;;;;;1.90;1.30;;;;;;;;;;5128642;27;20225;-82
2023/07/20 13:05:59;;;;;;;2.90;1.42;;;;;;;;;;5129474;27;20285;-80
2023/07/20 13:08:26;;;;;;;1.75;1.23;;;;;;;;;;5130738;27;20221;-81
2023/07/20 13:10:54;;;;;;;1.77;1.40;;;;;;;;;;5129958;27;20197;-81
2023/07/20 13:13:21;;;;;;;2.75;1.30;;;;;;;;;;5132140;27;20197;-81
2023/07/20 13:15:48;;;;;;;3.03;1.30;;;;;;;;;;5131731;27;20299;-81
2023/07/20 13:18:18;;;;;;;3.70;1.35;;;;;;;;;;5134514;27;20224;-80
2023/07/20 13:20:45;;;;;;;2.10;1.38;;;;;;;;;;5130326;27;20201;-80
2023/07/20 13:23:13;;;;;;;2.63;1.15;;;;;;;;;;5130184;27;20248;-80
2023/07/20 13:25:40;;;;;;;3.33;1.25;;;;;;;;;;5131351;27;20188;-80
2023/07/20 13:28:08;;;;;;;1.98;1.33;;;;;;;;;;5131332;27;20285;-80
2023/07/20 13:30:35;;;;;;;4.43;1.50;;;;;;;;;;5129789;27;20193;-80
2023/07/20 13:33:02;;;;;;;3.03;1.38;;;;;;;;;;5131694;27;20284;-81
2023/07/20 13:35:31;;;;;;;1.85;1.30;;;;;;;;;;5128920;27;20666;-81
2023/07/20 13:37:58;;;;;;;2.25;1.20;;;;;;;;;;5131809;27;20213;-81
2023/07/20 13:40:25;;;;;;;2.15;1.20;;;;;;;;;;5131013;27;20197;-82
2023/07/20 13:42:53;;;;;;;2.85;1.33;;;;;;;;;;5131701;27;20191;-82
2023/07/20 13:45:20;;;;;;;2.38;1.40;;;;;;;;;;5130847;27;20304;-80
2023/07/20 13:47:48;;;;;;;3.92;1.48;;;;;;;;;;5131815;27;20408;-81
2023/07/20 13:50:15;;;;;;;2.88;1.50;;;;;;;;;;5128900;27;20693;-81
2023/07/20 13:52:43;;;;;;;2.33;1.35;;;;;;;;;;5132945;27;20256;-80
2023/07/20 13:55:11;;;;;;;2.15;1.40;;;;;;;;;;5130869;27;20190;-81
2023/07/20 13:57:38;;;;;;;3.33;1.25;;;;;;;;;;5132111;27;20227;-80
2023/07/20 14:00:09;;;;;;;3.05;1.60;;;;;;;;;;5133895;27;20189;-80
2023/07/20 14:02:37;;;;;;;3.35;1.38;;;;;;;;;;5124569;27;20217;-78
2023/07/20 14:05:04;;;;;;;2.95;1.50;;;;;;;;;;5130913;27;20749;-79
2023/07/20 14:07:31;;;;;;;3.55;1.25;;;;;;;;;;5129648;27;20219;-79
2023/07/20 14:10:00;;;;;;;2.03;1.48;;;;;;;;;;5131279;27;20216;-80
2023/07/20 14:12:27;;;;;;;2.65;1.38;;;;;;;;;;5129992;27;20642;-81
2023/07/20 14:14:55;;;;;;;3.47;1.50;;;;;;;;;;5129237;27;20224;-80
2023/07/20 14:17:22;;;;;;;2.60;1.30;;;;;;;;;;5125921;27;20280;-80
2023/07/20 14:19:50;;;;;;;2.17;1.55;;;;;;;;;;5126481;27;20207;-79
2023/07/20 14:22:18;;;;;;;3.72;1.40;;;;;;;;;;5128704;27;20287;-79
2023/07/20 14:24:45;;;;;;;2.58;1.30;;;;;;;;;;5130859;27;20278;-80
2023/07/20 14:27:14;;;;;;;5.20;1.70;;;;;;;;;;5129977;28;20193;-79
2023/07/20 14:29:41;;;;;;;3.10;1.38;;;;;;;;;;5131448;27;20224;-80
2023/07/20 14:32:08;;;;;;;2.05;1.63;;;;;;;;;;5130139;27;20196;-80
2023/07/20 14:34:35;;;;;;;2.72;1.35;;;;;;;;;;5129123;27;20314;-78
2023/07/20 14:37:04;;;;;;;2.30;1.23;;;;;;;;;;5130672;28;20200;-80
2023/07/20 14:39:31;;;;;;;1.55;1.20;;;;;;;;;;5131210;27;20189;-79
2023/07/20 14:41:59;;;;;;;2.00;1.30;;;;;;;;;;5132715;27;20200;-80
2023/07/20 14:44:27;;;;;;;1.45;1.10;;;;;;;;;;5126649;27;20221;-80
2023/07/20 14:46:55;;;;;;;2.80;1.40;;;;;;;;;;5130914;27;20327;-79